Time;durP1;ratioP1;P1;durP2;ratioP2;P2;SDS_P1;SDS_P2;PMS_P1;PMS_P2;Temp;Humidity;BMP_temperature;BMP_pressure;BME280_temperature;BME280_humidity;BME280_pressure;Samples;Min_cycle;Max_cycle;Signal;HPM_P1;HPM_P2
2021/12/14 00:00:48;;;;;;;;;20.00;18.25;;;;;9.68;66.61;102307.13;5032056;28;45545;-62
2021/12/14 00:03:16;;;;;;;;;29.00;19.25;;;;;9.63;67.35;102308.63;5033991;28;45007;-62
2021/12/14 00:05:43;;;;;;;;;19.50;19.00;;;;;9.54;67.10;102309.03;5032704;28;45117;-62
2021/12/14 00:08:12;;;;;;;;;23.25;18.25;;;;;9.43;67.22;102278.19;5033533;28;45073;-62
2021/12/14 00:13:20;;;;;;;;;20.25;18.50;;;;;9.65;67.47;102288.31;5033046;28;44899;-61
2021/12/14 00:15:48;;;;;;;;;24.25;16.25;;;;;9.54;67.10;102262.78;5033779;28;45189;-62
2021/12/14 00:18:13;;;;;;;;;23.25;16.00;;;;;9.73;67.50;102272.69;5032596;28;45554;-61
2021/12/14 00:20:51;;;;;;;;;21.75;15.25;;;;;9.75;66.63;102279.97;5033053;28;45485;-62
2021/12/14 00:26:05;;;;;;;;;21.25;18.00;;;;;9.67;66.10;102305.31;5032915;28;44945;-61
2021/12/14 00:28:33;;;;;;;;;20.25;18.75;;;;;9.64;66.73;102306.91;5033271;28;45839;-61
2021/12/14 00:31:05;;;;;;;;;21.50;18.00;;;;;9.46;66.91;102275.69;5032901;28;45108;-63
2021/12/14 00:33:34;;;;;;;;;19.75;18.25;;;;;9.51;66.74;102291.97;5033961;28;45180;-62
2021/12/14 00:36:01;;;;;;;;;17.75;17.50;;;;;9.49;66.82;102278.53;5033313;28;44973;-62
2021/12/14 00:38:27;;;;;;;;;15.75;10.75;;;;;9.51;67.42;102271.53;5032171;28;45689;-62
2021/12/14 00:40:58;;;;;;;;;23.50;17.00;;;;;9.50;67.30;102279.44;5047966;28;44918;-63
2021/12/14 00:43:24;;;;;;;;;17.25;13.75;;;;;9.48;67.44;102289.13;5032230;28;45343;-61
2021/12/14 00:45:50;;;;;;;;;13.50;12.50;;;;;9.56;67.69;102295.78;5031678;28;45026;-62
2021/12/14 00:48:15;;;;;;;;;16.00;11.75;;;;;9.47;67.47;102269.53;5031351;28;45200;-62
2021/12/14 00:50:46;;;;;;;;;13.75;10.75;;;;;9.58;67.19;102275.44;5030789;28;44949;-62
2021/12/14 00:53:12;;;;;;;;;19.50;16.00;;;;;9.52;67.16;102267.09;5033107;28;45017;-62
2021/12/14 00:55:42;;;;;;;;;13.25;13.25;;;;;9.54;67.85;102277.03;5032353;28;45126;-62
2021/12/14 00:58:08;;;;;;;;;12.25;12.00;;;;;9.53;67.41;102285.84;5032462;28;45316;-61
2021/12/14 01:00:39;;;;;;;;;14.00;12.75;;;;;9.43;67.67;102288.84;5032677;28;45005;-63
2021/12/14 01:03:06;;;;;;;;;8.50;8.50;;;;;9.38;67.72;102293.00;5025944;28;45392;-62
2021/12/14 01:05:37;;;;;;;;;9.50;9.50;;;;;9.29;67.26;102274.75;5033466;28;44886;-62
2021/12/14 01:08:08;;;;;;;;;8.00;8.00;;;;;9.20;67.50;102269.81;5031690;28;45502;-62
2021/12/14 01:10:40;;;;;;;;;8.50;8.25;;;;;9.18;67.45;102274.13;5032141;28;45031;-63
2021/12/14 01:13:08;;;;;;;;;11.00;9.50;;;;;9.19;67.63;102275.97;5031796;28;45128;-62
2021/12/14 01:27:03;;;;;;;;;11.00;10.00;;;;;9.55;67.22;102323.28;5032040;28;44942;-62
2021/12/14 01:29:29;;;;;;;;;12.50;10.00;;;;;9.50;66.83;102303.44;5032068;28;46668;-62
2021/12/14 01:32:00;;;;;;;;;11.50;8.75;;;;;9.64;66.59;102321.16;5031645;28;44934;-61
2021/12/14 01:34:26;;;;;;;;;10.25;9.00;;;;;9.66;66.18;102330.16;5031924;28;45221;-61
2021/12/14 01:36:56;;;;;;;;;11.75;9.50;;;;;9.61;66.26;102328.06;5032748;28;44910;-63
2021/12/14 01:42:07;;;;;;;;;9.00;9.00;;;;;9.64;66.72;102353.19;5031682;28;45052;-62
2021/12/14 01:44:38;;;;;;;;;11.75;10.75;;;;;9.63;66.57;102356.66;5030972;28;45093;-62
2021/12/14 01:47:10;;;;;;;;;14.50;11.50;;;;;9.58;66.58;102339.47;5030787;28;44975;-62
2021/12/14 01:49:36;;;;;;;;;13.75;13.00;;;;;9.54;66.70;102337.50;5031076;28;45243;-62
2021/12/14 01:52:07;;;;;;;;;8.75;6.00;;;;;9.63;67.06;102343.31;5031108;28;44956;-61
2021/12/14 01:54:38;;;;;;;;;14.50;11.50;;;;;9.67;66.56;102355.06;5031564;28;45133;-63
2021/12/14 01:57:07;;;;;;;;;13.75;11.50;;;;;9.74;66.86;102359.94;5030479;28;45112;-62
2021/12/14 01:59:37;;;;;;;;;18.00;13.75;;;;;9.77;67.02;102362.78;5011502;28;45737;-63
2021/12/14 02:02:20;;;;;;;;;16.00;11.25;;;;;9.80;66.52;102380.72;5017689;28;45029;-62
2021/12/14 02:04:50;;;;;;;;;13.50;11.00;;;;;9.64;66.20;102347.84;5028667;28;45124;-62
2021/12/14 02:07:18;;;;;;;;;18.50;13.75;;;;;9.76;66.25;102377.88;5028170;28;45397;-62
2021/12/14 02:09:50;;;;;;;;;16.75;11.00;;;;;9.55;66.13;102390.00;5031624;28;45664;-62
2021/12/14 02:12:21;;;;;;;;;12.00;10.50;;;;;9.38;67.42;102381.03;5031572;28;45022;-62
2021/12/14 02:14:47;;;;;;;;;13.75;11.25;;;;;9.51;67.32;102414.69;5032280;28;45039;-62
2021/12/14 02:17:17;;;;;;;;;10.25;9.00;;;;;9.56;66.74;102418.53;5032006;28;45056;-63
2021/12/14 02:19:43;;;;;;;;;19.50;15.00;;;;;9.26;65.98;102349.25;5031134;28;45749;-62
2021/12/14 02:22:09;;;;;;;;;12.50;11.00;;;;;9.69;65.99;102405.06;5030870;28;45250;-61
2021/12/14 02:24:38;;;;;;;;;10.50;9.00;;;;;9.72;66.25;102402.56;5030838;28;45119;-62
2021/12/14 02:27:04;;;;;;;;;5.75;5.75;;;;;9.72;66.28;102391.88;5032174;28;45177;-62
2021/12/14 02:29:34;;;;;;;;;9.00;9.00;;;;;9.73;65.92;102388.41;5031828;28;45610;-63
2021/12/14 02:32:13;;;;;;;;;12.25;9.00;;;;;9.64;66.14;102377.19;5031505;28;45055;-62
2021/12/14 02:34:42;;;;;;;;;11.00;9.50;;;;;9.48;67.28;102370.06;5032007;28;45130;-62
2021/12/14 02:37:07;;;;;;;;;10.25;8.00;;;;;9.46;67.53;102350.38;5030770;28;45233;-62
2021/12/14 02:42:07;;;;;;;;;12.50;11.75;;;;;9.51;67.17;102348.91;5031491;28;45034;-62
2021/12/14 02:44:33;;;;;;;;;14.75;11.00;;;;;9.51;67.59;102345.31;5032014;28;45032;-61
2021/12/14 02:47:03;;;;;;;;;11.00;9.50;;;;;9.52;67.01;102345.41;5032073;28;45142;-62
2021/12/14 02:49:33;;;;;;;;;12.75;11.50;;;;;9.66;67.29;102354.16;5031567;28;45668;-62
2021/12/14 02:52:10;;;;;;;;;10.50;10.50;;;;;9.67;66.67;102355.06;5031506;28;45138;-62
2021/12/14 02:54:48;;;;;;;;;2.25;0.00;;;;;9.63;66.21;102356.66;5031406;28;45040;-62
2021/12/14 02:57:19;;;;;;;;;17.00;12.50;;;;;9.58;66.49;102356.41;5030876;28;45187;-62
2021/12/14 02:59:47;;;;;;;;;16.00;13.50;;;;;9.57;66.83;102359.91;5030941;28;45270;-62
2021/12/14 03:02:19;;;;;;;;;18.50;15.50;;;;;9.60;66.79;102351.16;5030700;28;44954;-61
2021/12/14 03:04:52;;;;;;;;;16.50;13.50;;;;;9.65;66.69;102331.00;5030420;28;45044;-62
2021/12/14 03:07:22;;;;;;;;;15.50;11.50;;;;;9.57;66.61;102314.56;5030974;28;45089;-62
2021/12/14 03:10:18;;;;;;;;;17.50;12.25;;;;;9.64;66.10;102331.81;5030032;28;45063;-62
2021/12/14 03:12:51;;;;;;;;;13.50;11.75;;;;;9.56;66.21;102330.47;5028619;28;45103;-62
2021/12/14 03:15:19;;;;;;;;;16.25;13.00;;;;;9.48;66.42;102326.47;5029915;28;45038;-63
2021/12/14 03:17:48;;;;;;;;;14.25;13.75;;;;;9.36;66.43;102311.59;5032056;28;45167;-62
2021/12/14 03:20:21;;;;;;;;;20.00;14.00;;;;;9.46;66.47;102323.72;5032685;28;45141;-62
2021/12/14 03:23:03;;;;;;;;;12.25;12.00;;;;;9.44;66.62;102340.44;5032551;28;45037;-62
2021/12/14 03:25:31;;;;;;;;;20.75;15.50;;;;;9.18;66.28;102297.22;5032466;28;45192;-62
2021/12/14 03:27:58;;;;;;;;;16.00;13.75;;;;;9.33;66.59;102321.19;5032952;28;45151;-61
2021/12/14 03:30:43;;;;;;;;;18.50;14.25;;;;;9.35;67.38;102330.19;5031903;28;45339;-62
2021/12/14 03:33:18;;;;;;;;;17.75;14.00;;;;;9.37;67.35;102329.44;5019062;28;44957;-63
2021/12/14 03:35:48;;;;;;;;;21.25;18.00;;;;;9.41;67.23;102327.88;5032372;28;45117;-64
2021/12/14 03:38:19;;;;;;;;;18.50;17.25;;;;;9.40;67.05;102323.34;5032442;28;45991;-61
2021/12/14 03:40:55;;;;;;;;;19.00;16.50;;;;;9.47;67.06;102316.63;5044420;28;45577;-61
2021/12/14 03:43:22;;;;;;;;;11.00;11.00;;;;;9.52;66.48;102318.72;5023843;28;45371;-62
2021/12/14 03:45:47;;;;;;;;;19.00;13.75;;;;;9.53;66.48;102287.63;5031974;28;45215;-61
2021/12/14 03:48:13;;;;;;;;;15.25;13.00;;;;;9.59;66.03;102306.66;5031609;28;45072;-61
2021/12/14 03:50:41;;;;;;;;;19.50;17.00;;;;;9.59;66.37;102319.97;5030661;28;45425;-62
2021/12/14 03:53:08;;;;;;;;;14.00;14.00;;;;;9.13;65.94;102222.31;5023766;28;45407;-63
2021/12/14 03:55:37;;;;;;;;;19.25;17.50;;;;;9.61;66.30;102304.97;5028308;28;45082;-62
2021/12/14 03:58:10;;;;;;;;;18.75;17.50;;;;;9.54;65.66;102273.47;5023141;28;45268;-63
2021/12/14 04:00:41;;;;;;;;;14.75;12.75;;;;;9.76;65.93;102297.78;5019407;28;46303;-61
2021/12/14 04:03:11;;;;;;;;;20.50;17.00;;;;;9.77;65.35;102293.41;5031321;28;45021;-62
2021/12/14 04:05:41;;;;;;;;;24.50;16.00;;;;;9.71;65.60;102277.03;5030766;28;45009;-61
2021/12/14 04:08:06;;;;;;;;;21.25;17.00;;;;;9.75;65.40;102279.97;5028166;28;45329;-63
2021/12/14 04:10:34;;;;;;;;;21.75;20.25;;;;;9.76;65.63;102292.44;5030153;28;45293;-62
2021/12/14 04:13:00;;;;;;;;;21.00;15.25;;;;;9.77;64.98;102283.63;5029391;28;45443;-61
2021/12/14 04:15:27;;;;;;;;;22.25;18.75;;;;;9.71;65.53;102291.28;5022431;28;45565;-62
2021/12/14 04:17:52;;;;;;;;;17.00;15.25;;;;;9.63;66.29;102283.72;5018178;28;45666;-62
2021/12/14 04:20:28;;;;;;;;;17.75;14.50;;;;;9.67;65.80;102294.63;5015280;28;46498;-62
2021/12/14 04:22:53;;;;;;;;;18.25;15.25;;;;;9.57;66.24;102278.97;5016182;28;45621;-62
2021/12/14 04:25:28;;;;;;;;;21.50;17.00;;;;;9.71;65.88;102320.66;5020109;28;45272;-63
2021/12/14 04:27:55;;;;;;;;;20.75;12.75;;;;;9.53;65.58;102307.19;5018617;28;46258;-63
2021/12/14 04:30:24;;;;;;;;;20.25;15.75;;;;;9.66;65.87;102315.91;5017722;28;45403;-61
2021/12/14 04:32:53;;;;;;;;;23.00;19.50;;;;;9.61;66.53;102323.66;5017678;28;45507;-63
2021/12/14 04:35:19;;;;;;;;;17.25;14.50;;;;;9.62;66.82;102324.56;5022879;28;45463;-62
2021/12/14 04:37:55;;;;;;;;;26.50;16.75;;;;;9.01;66.61;102249.19;5021666;28;45495;-62
2021/12/14 04:51:53;;;;;;;;;20.00;16.00;;;;;9.53;66.49;102331.22;5025662;28;45648;-61
2021/12/14 04:51:58;;;;;;;;;21.75;15.50;;;;;9.72;66.52;102314.50;5030571;28;45137;-62
2021/12/14 04:54:27;;;;;;;;;18.00;13.00;;;;;9.77;66.26;102318.31;5030121;28;45195;-63
2021/12/14 04:56:53;;;;;;;;;20.25;17.00;;;;;9.77;66.56;102309.41;5032153;28;45315;-61
2021/12/14 04:59:29;;;;;;;;;20.25;16.00;;;;;9.83;66.92;102319.50;5032779;28;45142;-61
2021/12/14 05:02:00;;;;;;;;;19.75;16.75;;;;;9.82;66.70;102317.69;5032092;28;45260;-62
2021/12/14 05:04:27;;;;;;;;;21.75;17.75;;;;;9.84;66.45;102327.59;5032952;28;44914;-62
2021/12/14 05:07:03;;;;;;;;;19.50;17.00;;;;;9.76;66.24;102308.47;5032715;28;45090;-62
2021/12/14 05:09:33;;;;;;;;;24.50;15.00;;;;;9.44;65.92;102249.75;5032420;28;45220;-62
2021/12/14 05:12:08;;;;;;;;;14.50;13.25;;;;;9.85;66.39;102323.16;5031225;28;45928;-62
2021/12/14 05:14:37;;;;;;;;;19.50;17.75;;;;;9.87;66.66;102313.50;5032117;28;45169;-63
2021/12/14 05:17:08;;;;;;;;;22.50;18.25;;;;;9.91;65.93;102323.50;5032380;28;45061;-61
2021/12/14 05:19:38;;;;;;;;;16.00;13.50;;;;;9.73;66.03;102305.66;5031539;28;44990;-62
2021/12/14 05:22:10;;;;;;;;;19.25;15.25;;;;;9.81;66.18;102319.41;5016550;28;45734;-61
2021/12/14 05:24:42;;;;;;;;;19.50;15.75;;;;;9.84;66.72;102324.91;5017876;28;45386;-63
2021/12/14 05:27:10;;;;;;;;;16.75;14.25;;;;;9.87;66.00;102333.09;5017532;28;45593;-62
2021/12/14 05:29:39;;;;;;;;;16.00;12.00;;;;;9.93;66.41;102322.75;5014516;28;45467;-61
2021/12/14 05:32:06;;;;;;;;;18.00;16.00;;;;;9.88;66.63;102317.97;5014448;28;47348;-62
2021/12/14 05:34:32;;;;;;;;;15.50;13.75;;;;;9.92;65.65;102330.69;5013740;28;45804;-62
2021/12/14 05:36:59;;;;;;;;;16.25;14.75;;;;;9.86;66.05;102338.34;5016475;28;45591;-61
2021/12/14 05:44:40;;;;;;;;;24.00;17.25;;;;;9.78;66.35;102333.50;5019159;28;45378;-62
2021/12/14 05:47:12;;;;;;;;;17.25;15.00;;;;;9.76;66.49;102327.16;5020477;28;45323;-63
2021/12/14 05:49:40;;;;;;;;;24.75;17.00;;;;;9.78;66.18;102325.50;5019214;28;45276;-62
2021/12/14 05:52:11;;;;;;;;;15.00;12.00;;;;;9.76;66.79;102328.91;5020875;28;45987;-62
2021/12/14 05:54:38;;;;;;;;;17.00;14.00;;;;;9.74;66.35;102325.25;5012725;28;45454;-62
2021/12/14 05:57:06;;;;;;;;;17.25;14.00;;;;;9.74;66.26;102344.84;5016008;28;45408;-61
2021/12/14 05:59:33;;;;;;;;;20.25;17.00;;;;;9.39;66.56;102281.53;5030760;28;45629;-62
2021/12/14 06:01:59;;;;;;;;;14.75;13.25;;;;;9.77;66.12;102341.44;5030861;28;45279;-62
2021/12/14 06:04:32;;;;;;;;;18.50;14.50;;;;;9.80;66.14;102349.63;5031829;28;44954;-61
2021/12/14 06:06:57;;;;;;;;;18.50;15.00;;;;;9.80;65.89;102340.66;5031698;28;45135;-62
2021/12/14 06:09:30;;;;;;;;;18.25;11.50;;;;;9.78;66.14;102338.84;5030864;28;45207;-62
2021/12/14 06:11:59;;;;;;;;;19.50;16.00;;;;;9.76;66.40;102352.94;5029452;28;45058;-62
2021/12/14 06:14:28;;;;;;;;;24.25;13.50;;;;;9.70;66.47;102366.88;5031201;28;45072;-62
2021/12/14 06:16:57;;;;;;;;;15.00;13.75;;;;;9.67;66.16;102368.41;5028078;28;45089;-61
2021/12/14 06:19:31;;;;;;;;;22.75;20.50;;;;;9.71;66.53;102365.13;5032325;28;45120;-62
2021/12/14 06:22:01;;;;;;;;;18.00;15.25;;;;;9.75;66.31;102392.06;5030156;28;47667;-62
2021/12/14 06:24:30;;;;;;;;;21.25;14.00;;;;;9.75;66.16;102386.72;5024562;28;45472;-61
2021/12/14 06:26:59;;;;;;;;;19.25;15.25;;;;;9.76;65.43;102388.53;5017294;28;45009;-62
2021/12/14 06:29:31;;;;;;;;;14.50;13.50;;;;;9.74;65.65;102390.22;5011798;28;44931;-63
2021/12/14 06:32:04;;;;;;;;;20.50;16.75;;;;;9.73;65.97;102388.41;5011137;28;45906;-63
2021/12/14 06:34:30;;;;;;;;;20.00;14.00;;;;;9.75;65.64;102381.38;5021796;28;45213;-63
2021/12/14 06:37:19;;;;;;;;;19.25;16.25;;;;;9.63;65.63;102388.69;5022496;28;45383;-62
2021/12/14 06:40:12;;;;;;;;;25.75;19.75;;;;;9.61;65.84;102385.03;5016273;28;45336;-63
2021/12/14 06:42:44;;;;;;;;;32.25;26.75;;;;;9.65;65.70;102391.44;5009040;28;45330;-63
2021/12/14 06:45:16;;;;;;;;;20.50;17.75;;;;;9.47;65.82;102372.63;5029933;28;45233;-62
2021/12/14 06:47:44;;;;;;;;;19.75;14.75;;;;;9.69;65.32;102410.41;5031671;28;46177;-63
2021/12/14 06:50:13;;;;;;;;;18.25;11.00;;;;;9.74;65.71;102399.97;5021575;28;45402;-62
2021/12/14 06:52:39;;;;;;;;;12.00;12.00;;;;;9.77;65.15;102398.41;5025878;28;45762;-63
2021/12/14 06:55:06;;;;;;;;;19.25;16.75;;;;;9.64;65.66;102376.28;5018118;28;45408;-62
2021/12/14 06:57:32;;;;;;;;;5.25;0.50;;;;;9.80;65.87;102408.34;5012899;28;45323;-63
2021/12/14 06:59:58;;;;;;;;;28.50;20.50;;;;;9.85;65.14;102405.91;5010984;28;45315;-63
2021/12/14 07:02:26;;;;;;;;;15.25;11.25;;;;;9.89;65.33;102410.59;5012116;28;45800;-61
2021/12/14 07:04:52;;;;;;;;;30.00;21.50;;;;;9.87;65.10;102414.94;5030986;28;45141;-63
2021/12/14 07:07:24;;;;;;;;;15.50;14.50;;;;;9.61;65.69;102371.69;5031500;28;45314;-63
2021/12/14 07:09:53;;;;;;;;;51.00;36.25;;;;;9.83;65.00;102418.25;5027898;28;45118;-62
2021/12/14 07:12:34;;;;;;;;;23.50;21.50;;;;;9.81;65.02;102411.91;5026813;28;45623;-63
2021/12/14 07:15:20;;;;;;;;;19.00;15.25;;;;;9.75;65.12;102413.41;5027599;28;44993;-63
2021/12/14 07:17:54;;;;;;;;;20.25;17.75;;;;;9.80;65.72;102410.06;5022511;28;45526;-62
2021/12/14 07:20:28;;;;;;;;;21.00;17.50;;;;;9.83;65.62;102399.56;5024635;28;45416;-62
2021/12/14 07:23:04;;;;;;;;;21.25;17.25;;;;;9.86;65.20;102399.75;5019745;28;45979;-63
2021/12/14 07:25:31;;;;;;;;;20.75;14.50;;;;;9.91;64.93;102408.94;5019657;28;45533;-63
2021/12/14 07:28:11;;;;;;;;;35.75;33.50;;;;;9.91;65.01;102409.84;5021517;28;45405;-62
2021/12/14 07:30:38;;;;;;;;;20.75;17.00;;;;;9.94;65.42;102419.78;5015589;28;45361;-62
2021/12/14 07:33:11;;;;;;;;;21.50;19.50;;;;;9.92;65.33;102414.34;5015859;28;45987;-64
2021/12/14 07:36:08;;;;;;;;;21.50;19.50;;;;;9.94;65.66;102407.34;5017034;28;45387;-63
2021/12/14 07:38:41;;;;;;;;;22.00;17.75;;;;;9.99;65.17;102414.69;5018667;28;45518;-62
2021/12/14 07:41:15;;;;;;;;;25.75;19.75;;;;;9.96;65.40;102412.78;5015907;28;45456;-61
2021/12/14 07:44:04;;;;;;;;;20.50;17.50;;;;;9.91;65.00;102415.19;5015888;28;46530;-62
2021/12/14 07:46:39;;;;;;;;;35.75;26.25;;;;;9.98;65.78;102424.44;5033008;28;45215;-62
2021/12/14 07:49:19;;;;;;;;;20.75;19.50;;;;;10.03;65.24;102414.97;5030399;28;45124;-63
2021/12/14 07:51:45;;;;;;;;;19.50;15.25;;;;;9.92;65.24;102397.44;5022018;28;45260;-63
2021/12/14 07:54:16;;;;;;;;;16.75;12.75;;;;;10.03;64.72;102440.72;5028005;28;45857;-63
2021/12/14 07:56:46;;;;;;;;;18.25;16.25;;;;;10.06;64.83;102435.56;5015781;28;45573;-62
2021/12/14 07:59:25;;;;;;;;;19.50;17.50;;;;;10.06;65.08;102436.47;5020057;28;45372;-63
2021/12/14 08:02:07;;;;;;;;;23.75;17.75;;;;;10.08;65.12;102434.81;5016437;28;45433;-63
2021/12/14 08:04:35;;;;;;;;;28.25;20.50;;;;;10.10;65.10;102438.50;5015363;28;46183;-63
2021/12/14 08:07:01;;;;;;;;;19.75;18.00;;;;;10.12;64.89;102443.91;5015551;28;45530;-64
2021/12/14 08:09:49;;;;;;;;;25.75;25.25;;;;;10.12;64.81;102449.25;5030707;28;45395;-64
2021/12/14 08:12:29;;;;;;;;;33.25;26.00;;;;;10.12;65.41;102457.28;5015455;28;45364;-63
2021/12/14 08:15:19;;;;;;;;;24.00;20.00;;;;;10.17;64.69;102462.88;5014928;28;46327;-62
2021/12/14 08:17:56;;;;;;;;;35.50;29.50;;;;;10.19;64.73;102464.78;5014818;28;45369;-63
2021/12/14 08:20:23;;;;;;;;;36.25;27.50;;;;;10.22;64.25;102480.06;5015498;28;45420;-62
2021/12/14 08:22:49;;;;;;;;;23.75;19.25;;;;;10.22;64.45;102469.41;5015338;28;45435;-62
2021/12/14 08:25:21;;;;;;;;;36.75;21.25;;;;;10.05;64.76;102429.31;5014802;28;46239;-63
2021/12/14 08:27:47;;;;;;;;;20.25;14.75;;;;;10.32;64.45;102474.44;5015312;28;45382;-64
2021/12/14 08:30:15;;;;;;;;;20.25;16.00;;;;;10.37;64.48;102472.94;5014789;28;45357;-62
2021/12/14 08:32:42;;;;;;;;;20.00;19.00;;;;;10.38;64.14;102476.50;5015443;28;45568;-62
2021/12/14 08:35:11;;;;;;;;;29.25;22.50;;;;;10.28;64.18;102451.03;5014503;28;45994;-63
2021/12/14 08:37:56;;;;;;;;;25.00;17.00;;;;;10.43;63.99;102475.94;5014537;28;45376;-62
2021/12/14 08:40:35;;;;;;;;;46.50;36.75;;;;;10.46;64.29;102464.50;5014864;28;45505;-64
2021/12/14 08:43:19;;;;;;;;;25.25;20.50;;;;;10.48;64.06;102460.19;5015152;28;45459;-62
2021/12/14 08:45:55;;;;;;;;;22.75;20.25;;;;;10.50;64.10;102471.84;5013887;28;46044;-64
2021/12/14 08:48:25;;;;;;;;;22.75;21.50;;;;;10.47;64.05;102467.25;5014628;28;45453;-64
2021/12/14 08:51:14;;;;;;;;;25.75;19.25;;;;;10.54;63.99;102483.63;5014601;28;45265;-62
2021/12/14 08:53:47;;;;;;;;;23.25;15.75;;;;;10.49;64.21;102488.72;5014469;28;45588;-62
2021/12/14 08:56:15;;;;;;;;;61.75;47.00;;;;;10.46;63.89;102486.81;5014441;28;46202;-61
2021/12/14 08:58:42;;;;;;;;;25.00;21.25;;;;;10.47;63.75;102498.41;5014330;28;45454;-62
2021/12/14 09:01:14;;;;;;;;;23.50;18.25;;;;;10.51;63.99;102496.00;5014595;28;45386;-63
2021/12/14 09:03:45;;;;;;;;;22.00;17.50;;;;;10.49;63.81;102484.31;5014524;28;45339;-62
2021/12/14 09:06:18;;;;;;;;;27.75;18.75;;;;;10.47;63.56;102477.03;5014890;28;47261;-62
2021/12/14 09:08:46;;;;;;;;;33.00;30.00;;;;;10.51;64.03;102477.28;5014467;28;45475;-62
2021/12/14 09:11:14;;;;;;;;;21.75;21.25;;;;;10.50;63.97;102458.50;5011657;28;45477;-61
2021/12/14 09:13:40;;;;;;;;;29.75;20.25;;;;;10.59;63.66;102469.69;5013045;28;45567;-62
2021/12/14 09:16:10;;;;;;;;;24.50;19.50;;;;;10.63;63.94;102470.78;5014237;28;46219;-62
2021/12/14 09:18:42;;;;;;;;;26.00;21.00;;;;;10.65;63.41;102470.00;5014229;28;45298;-61
2021/12/14 09:21:15;;;;;;;;;25.25;18.00;;;;;10.69;63.94;102468.41;5014545;28;45469;-62
2021/12/14 09:23:45;;;;;;;;;24.50;19.50;;;;;10.74;63.42;102476.69;5014374;28;45414;-64
2021/12/14 09:26:16;;;;;;;;;23.25;22.50;;;;;10.73;63.16;102475.78;5013985;28;46633;-63
2021/12/14 09:28:43;;;;;;;;;27.00;22.00;;;;;10.73;63.13;102489.13;5014334;28;45287;-62
2021/12/14 09:31:13;;;;;;;;;26.25;23.00;;;;;10.76;63.23;102486.63;5012761;28;45450;-62
2021/12/14 09:33:40;;;;;;;;;32.50;26.25;;;;;10.76;63.22;102473.25;5014113;28;45578;-63
2021/12/14 09:36:12;;;;;;;;;45.00;29.00;;;;;10.81;63.74;102477.09;5014143;28;45429;-62
2021/12/14 09:38:44;;;;;;;;;27.75;20.50;;;;;10.90;63.63;102491.78;5013850;28;45495;-63
2021/12/14 09:41:13;;;;;;;;;25.50;24.25;;;;;10.94;63.06;102491.09;5014123;28;45334;-63
2021/12/14 09:43:39;;;;;;;;;30.25;22.75;;;;;10.95;62.80;102493.84;5014080;28;45404;-62
2021/12/14 09:46:07;;;;;;;;;29.50;22.25;;;;;10.98;62.56;102503.81;5013831;28;46215;-63
2021/12/14 09:48:37;;;;;;;;;24.00;22.00;;;;;10.99;63.07;102497.66;5013420;28;45384;-62
2021/12/14 09:51:08;;;;;;;;;23.00;22.00;;;;;10.45;62.80;102410.13;5013880;28;45579;-63
2021/12/14 09:53:37;;;;;;;;;38.50;31.75;;;;;10.95;62.14;102509.91;5013857;28;45479;-61
2021/12/14 09:56:04;;;;;;;;;27.00;23.75;;;;;10.87;62.98;102498.81;5013596;28;46200;-64
2021/12/14 09:58:36;;;;;;;;;24.00;19.50;;;;;10.97;62.71;102507.31;5013727;28;45486;-62
2021/12/14 10:01:11;;;;;;;;;25.00;21.25;;;;;10.97;61.85;102508.25;5013499;28;45530;-63
2021/12/14 10:03:37;;;;;;;;;20.00;18.50;;;;;10.97;62.56;102507.31;5013596;28;45271;-62
2021/12/14 10:06:07;;;;;;;;;20.25;19.75;;;;;10.59;62.40;102442.03;5013153;28;45648;-63
2021/12/14 10:08:38;;;;;;;;;18.00;18.00;;;;;10.92;62.72;102503.47;5013479;28;45510;-62
2021/12/14 10:11:09;;;;;;;;;28.00;24.00;;;;;10.78;62.47;102476.03;5013623;28;45622;-62
2021/12/14 10:13:39;;;;;;;;;26.00;23.75;;;;;10.95;62.10;102503.66;5011946;28;45252;-62
2021/12/14 10:16:07;;;;;;;;;26.75;22.00;;;;;10.97;62.48;102501.97;5012779;28;46988;-61
2021/12/14 10:18:59;;;;;;;;;27.00;23.75;;;;;11.00;62.92;102502.13;5011904;28;45694;-61
2021/12/14 10:21:32;;;;;;;;;57.25;46.50;;;;;11.05;62.91;102500.63;5012786;28;45485;-62
2021/12/14 10:24:01;;;;;;;;;26.25;23.50;;;;;11.09;62.40;102496.34;5016499;28;45430;-62
2021/12/14 10:26:32;;;;;;;;;25.50;23.25;;;;;11.01;62.24;102486.16;5016722;28;46285;-62
2021/12/14 10:28:59;;;;;;;;;33.75;28.25;;;;;11.16;62.46;102509.22;5016814;28;45648;-62
2021/12/14 10:31:54;;;;;;;;;26.00;21.50;;;;;11.15;62.23;102510.97;5017086;28;45598;-61
2021/12/14 10:34:25;;;;;;;;;22.00;22.00;;;;;11.05;61.61;102496.22;5015696;28;45445;-62
2021/12/14 10:37:06;;;;;;;;;29.25;26.00;;;;;11.14;61.95;102514.47;5016192;28;46155;-62
2021/12/14 10:44:51;;;;;;;;;33.25;26.00;;;;;11.19;62.58;102518.31;5017347;28;45548;-62
2021/12/14 10:47:19;;;;;;;;;34.75;27.75;;;;;10.81;62.21;102447.69;5016117;28;45513;-63
2021/12/14 10:49:46;;;;;;;;;31.50;28.00;;;;;11.13;61.58;102499.25;5016353;28;45339;-61
2021/12/14 10:52:18;;;;;;;;;29.00;24.25;;;;;11.22;62.64;102507.78;5016210;28;45394;-62
2021/12/14 10:54:51;;;;;;;;;45.50;38.00;;;;;11.31;62.11;102504.66;5016841;28;45375;-63
2021/12/14 10:57:22;;;;;;;;;32.50;28.00;;;;;11.37;61.67;102506.75;5016160;28;47189;-63
2021/12/14 10:59:52;;;;;;;;;30.25;21.75;;;;;11.43;61.73;102520.41;5016663;28;45560;-62
2021/12/14 11:02:20;;;;;;;;;23.00;19.25;;;;;11.46;61.47;102506.28;5016250;28;45329;-63
2021/12/14 11:04:56;;;;;;;;;25.50;20.50;;;;;11.49;61.29;102518.06;5016597;28;45420;-62
2021/12/14 11:07:29;;;;;;;;;26.50;25.25;;;;;11.52;60.92;102517.31;5015873;28;45323;-63
2021/12/14 11:10:15;;;;;;;;;24.75;20.00;;;;;11.45;61.75;102500.03;5015768;28;45301;-64
2021/12/14 11:12:43;;;;;;;;;26.50;25.50;;;;;11.53;61.00;102501.34;5015696;28;45451;-65
2021/12/14 11:15:19;;;;;;;;;35.25;29.50;;;;;11.57;61.26;102500.63;5016649;28;45515;-61
2021/12/14 11:21:00;;;;;;;;;27.50;24.25;;;;;11.52;60.67;102483.44;5015850;28;45442;-64
2021/12/14 11:23:36;;;;;;;;;27.25;25.75;;;;;11.61;60.78;102497.28;5013388;28;45603;-65
2021/12/14 11:26:06;;;;;;;;;35.00;30.50;;;;;11.68;60.79;102502.91;5016627;28;45619;-66
2021/12/14 11:28:37;;;;;;;;;29.00;25.75;;;;;11.70;60.42;102544.09;5015613;28;46160;-65
2021/12/14 11:31:12;;;;;;;;;35.75;32.25;;;;;11.70;61.14;102503.94;5015913;28;45430;-61
2021/12/14 11:34:03;;;;;;;;;37.75;26.75;;;;;11.73;60.91;102506.75;5015330;28;45459;-64
2021/12/14 11:36:31;;;;;;;;;27.25;25.25;;;;;11.74;60.60;102500.56;5016050;28;45756;-62
2021/12/14 11:38:57;;;;;;;;;34.25;29.50;;;;;11.73;60.82;102501.38;5015577;28;45442;-64
2021/12/14 11:41:28;;;;;;;;;32.00;28.25;;;;;11.73;60.75;102491.63;5013946;28;45988;-63
2021/12/14 11:44:31;;;;;;;;;47.00;32.25;;;;;11.78;60.70;102498.13;5015514;28;45470;-63
2021/12/14 11:47:06;;;;;;;;;38.75;32.50;;;;;11.77;60.05;102488.22;5015576;28;45439;-63
2021/12/14 11:49:57;;;;;;;;;30.25;27.00;;;;;11.74;60.99;102480.03;5015655;28;45756;-62
2021/12/14 11:52:35;;;;;;;;;28.75;26.00;;;;;11.78;60.12;102487.41;5014949;28;45442;-62
2021/12/14 11:55:00;;;;;;;;;34.75;26.75;;;;;11.73;60.30;102477.28;5015559;28;45378;-64
2021/12/14 11:57:31;;;;;;;;;37.75;32.75;;;;;11.81;60.69;102483.94;5015405;28;45635;-64
2021/12/14 12:00:09;;;;;;;;;30.25;25.25;;;;;11.82;60.43;102474.16;5015327;28;45357;-63
2021/12/14 12:02:34;;;;;;;;;28.50;24.25;;;;;11.65;60.17;102449.22;5015976;28;45471;-63
2021/12/14 12:05:14;;;;;;;;;41.25;29.00;;;;;11.79;60.82;102472.25;5031204;28;45312;-63
2021/12/14 12:10:36;;;;;;;;;34.25;29.25;;;;;11.77;59.96;102448.06;5014841;28;45378;-65
2021/12/14 12:13:01;;;;;;;;;28.50;26.75;;;;;11.88;60.53;102461.06;5015246;28;45374;-62
2021/12/14 12:15:26;;;;;;;;;42.25;34.50;;;;;11.88;60.59;102453.97;5015343;28;45424;-63
2021/12/14 12:17:56;;;;;;;;;23.50;22.00;;;;;11.89;60.11;102466.50;5015270;28;45371;-63
2021/12/14 12:20:37;;;;;;;;;28.50;26.75;;;;;11.90;60.24;102483.50;5014746;28;46216;-63